sensor_id;sensor_type;location;lat;lon;timestamp;P1;durP1;ratioP1;P2;durP2;ratioP2
35839;SDS011;35514;50.504;30.500;2023-02-28T00:00:00;8.32;;;3.70;;
35839;SDS011;35514;50.504;30.500;2023-02-28T00:02:29;9.00;;;3.97;;
35839;SDS011;35514;50.504;30.500;2023-02-28T00:04:56;10.68;;;3.55;;
35839;SDS011;35514;50.504;30.500;2023-02-28T00:07:27;7.10;;;3.45;;
35839;SDS011;35514;50.504;30.500;2023-02-28T00:09:54;9.75;;;4.07;;
35839;SDS011;35514;50.504;30.500;2023-02-28T00:12:23;5.05;;;2.95;;
35839;SDS011;35514;50.504;30.500;2023-02-28T00:14:51;7.63;;;3.90;;
35839;SDS011;35514;50.504;30.500;2023-02-28T00:17:19;10.50;;;4.70;;
35839;SDS011;35514;50.504;30.500;2023-02-28T00:19:48;12.15;;;4.22;;
35839;SDS011;35514;50.504;30.500;2023-02-28T00:22:16;6.82;;;3.50;;
35839;SDS011;35514;50.504;30.500;2023-02-28T00:24:44;5.35;;;3.10;;
35839;SDS011;35514;50.504;30.500;2023-02-28T00:27:12;8.88;;;3.60;;
35839;SDS011;35514;50.504;30.500;2023-02-28T00:29:39;9.05;;;4.13;;
35839;SDS011;35514;50.504;30.500;2023-02-28T00:32:07;7.30;;;3.35;;
35839;SDS011;35514;50.504;30.500;2023-02-28T00:34:35;8.55;;;3.80;;
35839;SDS011;35514;50.504;30.500;2023-02-28T00:37:06;12.98;;;4.10;;
35839;SDS011;35514;50.504;30.500;2023-02-28T00:39:34;10.18;;;3.53;;
35839;SDS011;35514;50.504;30.500;2023-02-28T00:42:02;10.30;;;4.50;;
35839;SDS011;35514;50.504;30.500;2023-02-28T00:44:30;13.80;;;4.07;;
35839;SDS011;35514;50.504;30.500;2023-02-28T00:46:58;12.75;;;3.95;;
35839;SDS011;35514;50.504;30.500;2023-02-28T00:49:26;9.38;;;3.78;;
35839;SDS011;35514;50.504;30.500;2023-02-28T00:51:54;10.82;;;3.33;;
35839;SDS011;35514;50.504;30.500;2023-02-28T00:54:23;6.55;;;3.47;;
35839;SDS011;35514;50.504;30.500;2023-02-28T00:56:51;6.78;;;3.38;;
35839;SDS011;35514;50.504;30.500;2023-02-28T00:59:19;8.60;;;3.70;;
35839;SDS011;35514;50.504;30.500;2023-02-28T01:01:46;9.68;;;3.33;;
35839;SDS011;35514;50.504;30.500;2023-02-28T01:04:15;7.65;;;3.35;;
35839;SDS011;35514;50.504;30.500;2023-02-28T01:06:42;7.53;;;3.58;;
35839;SDS011;35514;50.504;30.500;2023-02-28T01:09:10;9.50;;;3.50;;
35839;SDS011;35514;50.504;30.500;2023-02-28T01:11:39;7.85;;;3.08;;
35839;SDS011;35514;50.504;30.500;2023-02-28T01:14:11;8.15;;;3.83;;
35839;SDS011;35514;50.504;30.500;2023-02-28T01:16:39;5.88;;;3.20;;
35839;SDS011;35514;50.504;30.500;2023-02-28T01:19:06;7.25;;;3.83;;
35839;SDS011;35514;50.504;30.500;2023-02-28T01:21:34;8.13;;;3.78;;
35839;SDS011;35514;50.504;30.500;2023-02-28T01:24:02;7.85;;;3.75;;
35839;SDS011;35514;50.504;30.500;2023-02-28T01:26:30;7.63;;;3.13;;
35839;SDS011;35514;50.504;30.500;2023-02-28T01:28:59;8.60;;;4.05;;
35839;SDS011;35514;50.504;30.500;2023-02-28T01:31:51;7.40;;;4.40;;
35839;SDS011;35514;50.504;30.500;2023-02-28T01:34:18;8.18;;;3.55;;
35839;SDS011;35514;50.504;30.500;2023-02-28T01:36:46;11.27;;;3.58;;
35839;SDS011;35514;50.504;30.500;2023-02-28T01:39:13;8.27;;;3.38;;
35839;SDS011;35514;50.504;30.500;2023-02-28T01:44:59;10.27;;;3.33;;
35839;SDS011;35514;50.504;30.500;2023-02-28T01:47:28;8.07;;;3.35;;
35839;SDS011;35514;50.504;30.500;2023-02-28T01:49:57;6.35;;;3.38;;
35839;SDS011;35514;50.504;30.500;2023-02-28T01:52:25;13.38;;;3.65;;
35839;SDS011;35514;50.504;30.500;2023-02-28T01:54:54;7.60;;;3.80;;
35839;SDS011;35514;50.504;30.500;2023-02-28T01:57:23;8.48;;;3.38;;
35839;SDS011;35514;50.504;30.500;2023-02-28T01:59:52;9.48;;;3.83;;
35839;SDS011;35514;50.504;30.500;2023-02-28T02:02:23;4.82;;;3.03;;
35839;SDS011;35514;50.504;30.500;2023-02-28T02:04:52;7.38;;;2.88;;
35839;SDS011;35514;50.504;30.500;2023-02-28T02:07:20;8.18;;;3.60;;
35839;SDS011;35514;50.504;30.500;2023-02-28T02:09:48;8.30;;;3.97;;
35839;SDS011;35514;50.504;30.500;2023-02-28T02:12:19;8.07;;;4.03;;
35839;SDS011;35514;50.504;30.500;2023-02-28T02:14:54;6.15;;;2.67;;
35839;SDS011;35514;50.504;30.500;2023-02-28T02:17:28;7.07;;;3.13;;
35839;SDS011;35514;50.504;30.500;2023-02-28T02:20:11;6.65;;;3.40;;
35839;SDS011;35514;50.504;30.500;2023-02-28T02:25:29;8.82;;;3.45;;
35839;SDS011;35514;50.504;30.500;2023-02-28T02:28:10;9.40;;;3.08;;
35839;SDS011;35514;50.504;30.500;2023-02-28T02:31:06;8.68;;;3.70;;
35839;SDS011;35514;50.504;30.500;2023-02-28T02:36:28;6.47;;;3.55;;
35839;SDS011;35514;50.504;30.500;2023-02-28T02:39:00;6.30;;;3.40;;
35839;SDS011;35514;50.504;30.500;2023-02-28T02:41:32;9.35;;;3.67;;
35839;SDS011;35514;50.504;30.500;2023-02-28T02:44:02;7.32;;;3.60;;
35839;SDS011;35514;50.504;30.500;2023-02-28T02:46:32;6.65;;;3.30;;
35839;SDS011;35514;50.504;30.500;2023-02-28T02:49:02;8.18;;;3.90;;
35839;SDS011;35514;50.504;30.500;2023-02-28T02:51:32;5.95;;;3.40;;
35839;SDS011;35514;50.504;30.500;2023-02-28T02:54:02;6.72;;;3.83;;
35839;SDS011;35514;50.504;30.500;2023-02-28T02:56:32;6.72;;;3.53;;
35839;SDS011;35514;50.504;30.500;2023-02-28T02:59:01;4.63;;;3.28;;
35839;SDS011;35514;50.504;30.500;2023-02-28T03:01:30;6.93;;;3.85;;
35839;SDS011;35514;50.504;30.500;2023-02-28T03:03:59;6.53;;;3.17;;
35839;SDS011;35514;50.504;30.500;2023-02-28T03:06:28;6.00;;;2.90;;
35839;SDS011;35514;50.504;30.500;2023-02-28T03:08:57;5.70;;;2.72;;
35839;SDS011;35514;50.504;30.500;2023-02-28T03:11:25;7.70;;;3.47;;
35839;SDS011;35514;50.504;30.500;2023-02-28T03:14:05;6.95;;;3.42;;
35839;SDS011;35514;50.504;30.500;2023-02-28T03:19:34;8.35;;;3.00;;
35839;SDS011;35514;50.504;30.500;2023-02-28T03:22:11;6.95;;;3.17;;
35839;SDS011;35514;50.504;30.500;2023-02-28T03:24:43;4.15;;;2.83;;
35839;SDS011;35514;50.504;30.500;2023-02-28T03:27:15;6.97;;;2.92;;
35839;SDS011;35514;50.504;30.500;2023-02-28T03:29:45;8.38;;;3.88;;
35839;SDS011;35514;50.504;30.500;2023-02-28T03:32:16;8.88;;;2.97;;
35839;SDS011;35514;50.504;30.500;2023-02-28T03:34:48;7.75;;;3.10;;
35839;SDS011;35514;50.504;30.500;2023-02-28T03:37:18;13.15;;;3.30;;
35839;SDS011;35514;50.504;30.500;2023-02-28T03:39:49;6.55;;;3.15;;
35839;SDS011;35514;50.504;30.500;2023-02-28T03:42:18;7.78;;;3.42;;
35839;SDS011;35514;50.504;30.500;2023-02-28T03:44:48;8.88;;;3.05;;
35839;SDS011;35514;50.504;30.500;2023-02-28T03:47:17;8.23;;;3.00;;
35839;SDS011;35514;50.504;30.500;2023-02-28T03:49:50;8.93;;;3.10;;
35839;SDS011;35514;50.504;30.500;2023-02-28T03:52:20;6.03;;;3.03;;
35839;SDS011;35514;50.504;30.500;2023-02-28T03:54:52;10.45;;;3.42;;
35839;SDS011;35514;50.504;30.500;2023-02-28T03:57:23;8.60;;;3.03;;
35839;SDS011;35514;50.504;30.500;2023-02-28T03:59:54;16.58;;;3.13;;
35839;SDS011;35514;50.504;30.500;2023-02-28T04:02:23;7.85;;;3.63;;
35839;SDS011;35514;50.504;30.500;2023-02-28T04:04:51;11.93;;;3.22;;
35839;SDS011;35514;50.504;30.500;2023-02-28T04:07:18;10.02;;;4.00;;
35839;SDS011;35514;50.504;30.500;2023-02-28T04:09:46;4.53;;;2.65;;
35839;SDS011;35514;50.504;30.500;2023-02-28T04:12:15;18.05;;;4.70;;
35839;SDS011;35514;50.504;30.500;2023-02-28T04:14:42;13.40;;;6.95;;
35839;SDS011;35514;50.504;30.500;2023-02-28T04:17:10;11.40;;;4.05;;
35839;SDS011;35514;50.504;30.500;2023-02-28T04:19:38;10.52;;;4.13;;
35839;SDS011;35514;50.504;30.500;2023-02-28T04:22:05;13.20;;;4.60;;
35839;SDS011;35514;50.504;30.500;2023-02-28T04:24:33;8.32;;;3.95;;
35839;SDS011;35514;50.504;30.500;2023-02-28T04:27:01;8.52;;;4.07;;
35839;SDS011;35514;50.504;30.500;2023-02-28T04:29:31;12.07;;;4.40;;
35839;SDS011;35514;50.504;30.500;2023-02-28T04:31:59;9.93;;;4.28;;
35839;SDS011;35514;50.504;30.500;2023-02-28T04:34:28;15.80;;;4.18;;
35839;SDS011;35514;50.504;30.500;2023-02-28T04:36:55;11.32;;;3.58;;
35839;SDS011;35514;50.504;30.500;2023-02-28T04:39:38;9.45;;;4.25;;
35839;SDS011;35514;50.504;30.500;2023-02-28T04:42:06;8.20;;;3.65;;
35839;SDS011;35514;50.504;30.500;2023-02-28T04:44:35;7.82;;;3.42;;
35839;SDS011;35514;50.504;30.500;2023-02-28T04:47:02;6.90;;;3.70;;
35839;SDS011;35514;50.504;30.500;2023-02-28T04:49:30;11.73;;;4.20;;
35839;SDS011;35514;50.504;30.500;2023-02-28T04:51:57;13.23;;;3.83;;
35839;SDS011;35514;50.504;30.500;2023-02-28T04:54:25;10.82;;;4.40;;
35839;SDS011;35514;50.504;30.500;2023-02-28T04:56:52;15.52;;;3.65;;
35839;SDS011;35514;50.504;30.500;2023-02-28T04:59:21;8.73;;;3.85;;
35839;SDS011;35514;50.504;30.500;2023-02-28T05:01:50;9.63;;;4.20;;
35839;SDS011;35514;50.504;30.500;2023-02-28T05:04:17;11.82;;;4.28;;
35839;SDS011;35514;50.504;30.500;2023-02-28T05:06:45;10.18;;;4.85;;
35839;SDS011;35514;50.504;30.500;2023-02-28T05:09:13;10.77;;;4.10;;
35839;SDS011;35514;50.504;30.500;2023-02-28T05:11:41;12.23;;;4.47;;
35839;SDS011;35514;50.504;30.500;2023-02-28T05:14:10;9.60;;;4.38;;
35839;SDS011;35514;50.504;30.500;2023-02-28T05:16:38;10.68;;;3.53;;
35839;SDS011;35514;50.504;30.500;2023-02-28T05:19:07;11.02;;;4.47;;
35839;SDS011;35514;50.504;30.500;2023-02-28T05:21:35;7.13;;;3.28;;
35839;SDS011;35514;50.504;30.500;2023-02-28T05:24:04;8.63;;;4.40;;
35839;SDS011;35514;50.504;30.500;2023-02-28T05:26:34;11.32;;;4.38;;
35839;SDS011;35514;50.504;30.500;2023-02-28T05:29:02;9.80;;;3.90;;
35839;SDS011;35514;50.504;30.500;2023-02-28T05:31:32;16.45;;;5.22;;
35839;SDS011;35514;50.504;30.500;2023-02-28T05:33:59;10.60;;;4.53;;
35839;SDS011;35514;50.504;30.500;2023-02-28T05:36:29;9.98;;;3.80;;
35839;SDS011;35514;50.504;30.500;2023-02-28T05:38:56;9.95;;;3.53;;
35839;SDS011;35514;50.504;30.500;2023-02-28T05:41:24;9.50;;;4.38;;
35839;SDS011;35514;50.504;30.500;2023-02-28T05:43:52;11.00;;;4.55;;
35839;SDS011;35514;50.504;30.500;2023-02-28T05:46:20;11.55;;;4.28;;
35839;SDS011;35514;50.504;30.500;2023-02-28T05:48:48;9.68;;;3.83;;
35839;SDS011;35514;50.504;30.500;2023-02-28T05:51:16;10.50;;;4.75;;
35839;SDS011;35514;50.504;30.500;2023-02-28T05:53:45;11.07;;;4.28;;
35839;SDS011;35514;50.504;30.500;2023-02-28T05:56:14;16.27;;;4.43;;
35839;SDS011;35514;50.504;30.500;2023-02-28T05:58:42;9.55;;;4.00;;
35839;SDS011;35514;50.504;30.500;2023-02-28T06:01:19;10.25;;;4.30;;
35839;SDS011;35514;50.504;30.500;2023-02-28T06:03:49;8.15;;;3.30;;
35839;SDS011;35514;50.504;30.500;2023-02-28T06:06:16;9.93;;;4.07;;
35839;SDS011;35514;50.504;30.500;2023-02-28T06:08:45;11.27;;;4.45;;
35839;SDS011;35514;50.504;30.500;2023-02-28T06:11:13;11.90;;;4.20;;
35839;SDS011;35514;50.504;30.500;2023-02-28T06:13:41;10.10;;;3.53;;
35839;SDS011;35514;50.504;30.500;2023-02-28T06:16:09;9.90;;;3.78;;
35839;SDS011;35514;50.504;30.500;2023-02-28T06:18:37;9.98;;;3.20;;
35839;SDS011;35514;50.504;30.500;2023-02-28T06:21:05;16.42;;;4.20;;
35839;SDS011;35514;50.504;30.500;2023-02-28T06:23:33;9.55;;;4.43;;
35839;SDS011;35514;50.504;30.500;2023-02-28T06:26:02;12.77;;;4.13;;
35839;SDS011;35514;50.504;30.500;2023-02-28T06:28:29;9.65;;;3.38;;
35839;SDS011;35514;50.504;30.500;2023-02-28T06:30:57;9.30;;;4.07;;
35839;SDS011;35514;50.504;30.500;2023-02-28T06:33:24;8.18;;;3.78;;
35839;SDS011;35514;50.504;30.500;2023-02-28T06:35:52;10.35;;;4.07;;
35839;SDS011;35514;50.504;30.500;2023-02-28T06:38:20;10.07;;;4.57;;
35839;SDS011;35514;50.504;30.500;2023-02-28T06:40:52;12.48;;;4.75;;
35839;SDS011;35514;50.504;30.500;2023-02-28T06:43:21;10.45;;;4.00;;
35839;SDS011;35514;50.504;30.500;2023-02-28T06:45:49;8.13;;;3.90;;
35839;SDS011;35514;50.504;30.500;2023-02-28T06:48:17;32.80;;;4.80;;
35839;SDS011;35514;50.504;30.500;2023-02-28T06:50:45;8.57;;;4.18;;
35839;SDS011;35514;50.504;30.500;2023-02-28T06:53:13;8.38;;;4.88;;
35839;SDS011;35514;50.504;30.500;2023-02-28T06:55:41;9.98;;;4.07;;
35839;SDS011;35514;50.504;30.500;2023-02-28T06:58:09;8.10;;;3.85;;
35839;SDS011;35514;50.504;30.500;2023-02-28T07:00:50;16.95;;;4.45;;
35839;SDS011;35514;50.504;30.500;2023-02-28T07:03:18;10.85;;;4.57;;
35839;SDS011;35514;50.504;30.500;2023-02-28T07:08:38;10.63;;;4.50;;
35839;SDS011;35514;50.504;30.500;2023-02-28T07:11:07;8.05;;;3.53;;
35839;SDS011;35514;50.504;30.500;2023-02-28T07:13:35;11.93;;;4.20;;
35839;SDS011;35514;50.504;30.500;2023-02-28T07:16:05;9.02;;;4.05;;
35839;SDS011;35514;50.504;30.500;2023-02-28T07:18:57;8.15;;;3.55;;
35839;SDS011;35514;50.504;30.500;2023-02-28T07:21:49;11.10;;;3.92;;
35839;SDS011;35514;50.504;30.500;2023-02-28T07:24:42;7.97;;;3.28;;
35839;SDS011;35514;50.504;30.500;2023-02-28T07:27:10;8.40;;;4.13;;
35839;SDS011;35514;50.504;30.500;2023-02-28T07:29:37;7.18;;;4.13;;
35839;SDS011;35514;50.504;30.500;2023-02-28T07:32:06;8.05;;;3.80;;
35839;SDS011;35514;50.504;30.500;2023-02-28T07:34:58;11.02;;;4.45;;
35839;SDS011;35514;50.504;30.500;2023-02-28T07:37:26;8.52;;;4.10;;
35839;SDS011;35514;50.504;30.500;2023-02-28T07:39:53;16.38;;;4.10;;
35839;SDS011;35514;50.504;30.500;2023-02-28T07:42:21;12.02;;;4.57;;
35839;SDS011;35514;50.504;30.500;2023-02-28T07:45:12;10.70;;;3.80;;
35839;SDS011;35514;50.504;30.500;2023-02-28T07:48:06;9.15;;;3.78;;
35839;SDS011;35514;50.504;30.500;2023-02-28T07:50:36;6.68;;;3.78;;
35839;SDS011;35514;50.504;30.500;2023-02-28T07:53:04;7.55;;;3.60;;
35839;SDS011;35514;50.504;30.500;2023-02-28T07:55:31;10.65;;;4.03;;
35839;SDS011;35514;50.504;30.500;2023-02-28T07:57:59;8.38;;;3.55;;
35839;SDS011;35514;50.504;30.500;2023-02-28T08:00:27;8.57;;;4.60;;
35839;SDS011;35514;50.504;30.500;2023-02-28T08:02:56;7.32;;;3.45;;
35839;SDS011;35514;50.504;30.500;2023-02-28T08:05:25;7.72;;;3.58;;
35839;SDS011;35514;50.504;30.500;2023-02-28T08:07:53;10.02;;;3.63;;
35839;SDS011;35514;50.504;30.500;2023-02-28T08:10:21;6.38;;;3.17;;
35839;SDS011;35514;50.504;30.500;2023-02-28T08:12:48;6.95;;;3.80;;
35839;SDS011;35514;50.504;30.500;2023-02-28T08:15:16;12.95;;;6.07;;
35839;SDS011;35514;50.504;30.500;2023-02-28T08:17:44;9.63;;;4.10;;
35839;SDS011;35514;50.504;30.500;2023-02-28T08:20:12;7.28;;;4.25;;
35839;SDS011;35514;50.504;30.500;2023-02-28T08:22:41;10.10;;;3.53;;
35839;SDS011;35514;50.504;30.500;2023-02-28T08:25:32;8.70;;;3.83;;
35839;SDS011;35514;50.504;30.500;2023-02-28T08:28:00;8.85;;;3.70;;
35839;SDS011;35514;50.504;30.500;2023-02-28T08:30:27;11.20;;;4.47;;
35839;SDS011;35514;50.504;30.500;2023-02-28T08:32:55;8.15;;;3.97;;
35839;SDS011;35514;50.504;30.500;2023-02-28T08:35:46;8.32;;;3.55;;
35839;SDS011;35514;50.504;30.500;2023-02-28T08:38:40;8.90;;;3.80;;
35839;SDS011;35514;50.504;30.500;2023-02-28T08:41:11;10.02;;;4.00;;
35839;SDS011;35514;50.504;30.500;2023-02-28T08:43:39;7.28;;;3.67;;
35839;SDS011;35514;50.504;30.500;2023-02-28T08:46:11;8.18;;;3.70;;
35839;SDS011;35514;50.504;30.500;2023-02-28T08:48:40;12.60;;;4.10;;
35839;SDS011;35514;50.504;30.500;2023-02-28T08:51:09;8.18;;;3.85;;
35839;SDS011;35514;50.504;30.500;2023-02-28T08:53:37;11.55;;;4.55;;
35839;SDS011;35514;50.504;30.500;2023-02-28T08:56:07;9.18;;;4.28;;
35839;SDS011;35514;50.504;30.500;2023-02-28T08:58:35;11.40;;;4.18;;
35839;SDS011;35514;50.504;30.500;2023-02-28T09:01:07;6.38;;;3.50;;
35839;SDS011;35514;50.504;30.500;2023-02-28T09:03:35;11.10;;;4.60;;
35839;SDS011;35514;50.504;30.500;2023-02-28T09:06:04;9.38;;;4.28;;
35839;SDS011;35514;50.504;30.500;2023-02-28T09:08:32;10.07;;;3.92;;
35839;SDS011;35514;50.504;30.500;2023-02-28T09:10:59;9.85;;;4.53;;
35839;SDS011;35514;50.504;30.500;2023-02-28T09:13:30;9.80;;;4.35;;
35839;SDS011;35514;50.504;30.500;2023-02-28T09:15:58;14.48;;;4.78;;
35839;SDS011;35514;50.504;30.500;2023-02-28T09:18:26;11.82;;;4.72;;
35839;SDS011;35514;50.504;30.500;2023-02-28T09:20:54;11.30;;;5.10;;
35839;SDS011;35514;50.504;30.500;2023-02-28T09:23:21;11.65;;;4.88;;
35839;SDS011;35514;50.504;30.500;2023-02-28T09:25:50;8.25;;;4.22;;
35839;SDS011;35514;50.504;30.500;2023-02-28T09:28:18;12.88;;;4.85;;
35839;SDS011;35514;50.504;30.500;2023-02-28T09:30:48;16.33;;;5.68;;
35839;SDS011;35514;50.504;30.500;2023-02-28T09:33:16;13.60;;;5.63;;
35839;SDS011;35514;50.504;30.500;2023-02-28T09:35:47;9.82;;;4.75;;
35839;SDS011;35514;50.504;30.500;2023-02-28T09:38:15;13.00;;;5.15;;
35839;SDS011;35514;50.504;30.500;2023-02-28T09:40:45;10.77;;;5.15;;
35839;SDS011;35514;50.504;30.500;2023-02-28T09:43:14;21.45;;;4.85;;
35839;SDS011;35514;50.504;30.500;2023-02-28T09:45:45;11.48;;;5.40;;
35839;SDS011;35514;50.504;30.500;2023-02-28T09:48:17;14.30;;;5.55;;
35839;SDS011;35514;50.504;30.500;2023-02-28T09:50:48;14.27;;;7.03;;
35839;SDS011;35514;50.504;30.500;2023-02-28T09:53:19;16.02;;;5.25;;
35839;SDS011;35514;50.504;30.500;2023-02-28T09:55:48;9.23;;;5.32;;
35839;SDS011;35514;50.504;30.500;2023-02-28T09:58:18;11.68;;;4.72;;
35839;SDS011;35514;50.504;30.500;2023-02-28T10:00:49;8.82;;;4.80;;
35839;SDS011;35514;50.504;30.500;2023-02-28T10:03:24;10.70;;;5.40;;
35839;SDS011;35514;50.504;30.500;2023-02-28T10:08:21;16.98;;;5.57;;
35839;SDS011;35514;50.504;30.500;2023-02-28T10:10:53;9.18;;;4.38;;
35839;SDS011;35514;50.504;30.500;2023-02-28T10:13:24;10.05;;;4.75;;
35839;SDS011;35514;50.504;30.500;2023-02-28T10:15:54;8.57;;;4.15;;
35839;SDS011;35514;50.504;30.500;2023-02-28T10:18:24;9.05;;;4.88;;
35839;SDS011;35514;50.504;30.500;2023-02-28T10:20:52;11.60;;;6.20;;
35839;SDS011;35514;50.504;30.500;2023-02-28T10:23:23;8.23;;;3.90;;
35839;SDS011;35514;50.504;30.500;2023-02-28T10:25:53;10.13;;;4.32;;
35839;SDS011;35514;50.504;30.500;2023-02-28T10:28:24;7.00;;;3.83;;
35839;SDS011;35514;50.504;30.500;2023-02-28T10:30:53;8.07;;;4.60;;
35839;SDS011;35514;50.504;30.500;2023-02-28T10:33:24;7.40;;;3.67;;
35839;SDS011;35514;50.504;30.500;2023-02-28T10:35:52;8.32;;;4.18;;
35839;SDS011;35514;50.504;30.500;2023-02-28T10:38:20;5.85;;;3.80;;
35839;SDS011;35514;50.504;30.500;2023-02-28T10:40:48;8.13;;;4.35;;
35839;SDS011;35514;50.504;30.500;2023-02-28T10:43:20;7.93;;;3.80;;
35839;SDS011;35514;50.504;30.500;2023-02-28T10:45:56;6.65;;;3.67;;
35839;SDS011;35514;50.504;30.500;2023-02-28T10:48:31;7.97;;;3.45;;
35839;SDS011;35514;50.504;30.500;2023-02-28T10:51:00;5.40;;;3.67;;
35839;SDS011;35514;50.504;30.500;2023-02-28T10:53:28;6.35;;;3.97;;
35839;SDS011;35514;50.504;30.500;2023-02-28T10:56:04;6.78;;;4.18;;
35839;SDS011;35514;50.504;30.500;2023-02-28T10:58:42;7.75;;;3.97;;
35839;SDS011;35514;50.504;30.500;2023-02-28T11:01:13;14.48;;;5.90;;
35839;SDS011;35514;50.504;30.500;2023-02-28T11:03:43;10.30;;;4.38;;
35839;SDS011;35514;50.504;30.500;2023-02-28T11:06:13;9.52;;;3.40;;
35839;SDS011;35514;50.504;30.500;2023-02-28T11:08:47;6.80;;;3.28;;
35839;SDS011;35514;50.504;30.500;2023-02-28T11:11:15;6.55;;;3.05;;
35839;SDS011;35514;50.504;30.500;2023-02-28T11:13:44;5.97;;;3.83;;
35839;SDS011;35514;50.504;30.500;2023-02-28T11:16:13;3.85;;;3.08;;
35839;SDS011;35514;50.504;30.500;2023-02-28T11:18:49;4.63;;;2.95;;
35839;SDS011;35514;50.504;30.500;2023-02-28T11:21:21;6.18;;;3.20;;
35839;SDS011;35514;50.504;30.500;2023-02-28T11:23:51;4.97;;;3.38;;
35839;SDS011;35514;50.504;30.500;2023-02-28T11:29:03;7.75;;;3.60;;
35839;SDS011;35514;50.504;30.500;2023-02-28T11:31:33;5.15;;;3.53;;
35839;SDS011;35514;50.504;30.500;2023-02-28T11:34:07;7.80;;;3.72;;
35839;SDS011;35514;50.504;30.500;2023-02-28T11:36:48;8.35;;;4.32;;
35839;SDS011;35514;50.504;30.500;2023-02-28T11:39:15;6.22;;;4.10;;
35839;SDS011;35514;50.504;30.500;2023-02-28T11:41:52;7.63;;;3.80;;
35839;SDS011;35514;50.504;30.500;2023-02-28T11:44:23;6.45;;;3.72;;
35839;SDS011;35514;50.504;30.500;2023-02-28T11:46:56;13.38;;;3.60;;
35839;SDS011;35514;50.504;30.500;2023-02-28T11:49:29;6.60;;;3.83;;
35839;SDS011;35514;50.504;30.500;2023-02-28T11:51:59;7.60;;;3.70;;
35839;SDS011;35514;50.504;30.500;2023-02-28T11:57:16;6.53;;;4.00;;
35839;SDS011;35514;50.504;30.500;2023-02-28T11:59:48;6.20;;;3.45;;
35839;SDS011;35514;50.504;30.500;2023-02-28T12:02:20;10.18;;;4.38;;
35839;SDS011;35514;50.504;30.500;2023-02-28T12:04:54;7.72;;;4.25;;
35839;SDS011;35514;50.504;30.500;2023-02-28T12:07:25;8.02;;;3.92;;
35839;SDS011;35514;50.504;30.500;2023-02-28T12:09:59;9.48;;;4.20;;
35839;SDS011;35514;50.504;30.500;2023-02-28T12:12:36;8.63;;;3.92;;
35839;SDS011;35514;50.504;30.500;2023-02-28T12:15:14;7.70;;;4.15;;
35839;SDS011;35514;50.504;30.500;2023-02-28T12:17:50;9.77;;;4.38;;
35839;SDS011;35514;50.504;30.500;2023-02-28T12:20:25;7.65;;;4.15;;
35839;SDS011;35514;50.504;30.500;2023-02-28T12:22:55;11.70;;;4.13;;
35839;SDS011;35514;50.504;30.500;2023-02-28T12:25:33;7.22;;;3.90;;
35839;SDS011;35514;50.504;30.500;2023-02-28T12:28:08;12.23;;;4.45;;
35839;SDS011;35514;50.504;30.500;2023-02-28T12:30:37;8.18;;;4.65;;
35839;SDS011;35514;50.504;30.500;2023-02-28T12:33:06;11.60;;;4.32;;
35839;SDS011;35514;50.504;30.500;2023-02-28T12:35:37;11.30;;;4.68;;
35839;SDS011;35514;50.504;30.500;2023-02-28T12:38:08;7.03;;;4.43;;
35839;SDS011;35514;50.504;30.500;2023-02-28T12:40:41;8.80;;;4.35;;
35839;SDS011;35514;50.504;30.500;2023-02-28T12:43:10;8.50;;;4.80;;
35839;SDS011;35514;50.504;30.500;2023-02-28T12:45:40;7.60;;;4.50;;
35839;SDS011;35514;50.504;30.500;2023-02-28T12:48:09;9.50;;;5.07;;
35839;SDS011;35514;50.504;30.500;2023-02-28T12:50:41;8.50;;;5.03;;
35839;SDS011;35514;50.504;30.500;2023-02-28T12:53:09;7.53;;;4.15;;
35839;SDS011;35514;50.504;30.500;2023-02-28T12:55:42;8.88;;;4.45;;
35839;SDS011;35514;50.504;30.500;2023-02-28T12:58:13;8.27;;;4.72;;
35839;SDS011;35514;50.504;30.500;2023-02-28T13:00:46;7.30;;;4.00;;
35839;SDS011;35514;50.504;30.500;2023-02-28T13:06:20;16.13;;;4.45;;
35839;SDS011;35514;50.504;30.500;2023-02-28T13:08:58;8.98;;;4.40;;
35839;SDS011;35514;50.504;30.500;2023-02-28T13:11:28;8.95;;;4.50;;
35839;SDS011;35514;50.504;30.500;2023-02-28T13:14:00;9.98;;;4.60;;
35839;SDS011;35514;50.504;30.500;2023-02-28T13:16:51;7.40;;;3.70;;
35839;SDS011;35514;50.504;30.500;2023-02-28T13:19:20;7.80;;;3.95;;
35839;SDS011;35514;50.504;30.500;2023-02-28T13:21:51;8.55;;;4.10;;
35839;SDS011;35514;50.504;30.500;2023-02-28T13:24:42;6.78;;;4.20;;
35839;SDS011;35514;50.504;30.500;2023-02-28T13:29:58;8.65;;;4.30;;
35839;SDS011;35514;50.504;30.500;2023-02-28T13:35:13;7.05;;;4.43;;
35839;SDS011;35514;50.504;30.500;2023-02-28T13:37:43;9.75;;;4.72;;
35839;SDS011;35514;50.504;30.500;2023-02-28T13:43:07;11.05;;;4.70;;
35839;SDS011;35514;50.504;30.500;2023-02-28T13:45:35;13.18;;;4.93;;
35839;SDS011;35514;50.504;30.500;2023-02-28T13:48:12;6.43;;;4.40;;
35839;SDS011;35514;50.504;30.500;2023-02-28T13:50:43;7.28;;;4.18;;
35839;SDS011;35514;50.504;30.500;2023-02-28T13:53:26;8.80;;;5.22;;
35839;SDS011;35514;50.504;30.500;2023-02-28T13:55:58;7.93;;;4.30;;
35839;SDS011;35514;50.504;30.500;2023-02-28T13:58:33;6.90;;;4.65;;
35839;SDS011;35514;50.504;30.500;2023-02-28T14:01:10;10.77;;;5.18;;
35839;SDS011;35514;50.504;30.500;2023-02-28T14:03:54;9.65;;;4.93;;
35839;SDS011;35514;50.504;30.500;2023-02-28T14:06:26;8.05;;;4.57;;
35839;SDS011;35514;50.504;30.500;2023-02-28T14:08:57;11.80;;;4.53;;
35839;SDS011;35514;50.504;30.500;2023-02-28T14:11:27;11.65;;;4.78;;
35839;SDS011;35514;50.504;30.500;2023-02-28T14:13:58;11.63;;;5.78;;
35839;SDS011;35514;50.504;30.500;2023-02-28T14:16:26;12.90;;;5.47;;
35839;SDS011;35514;50.504;30.500;2023-02-28T14:18:57;14.00;;;5.65;;
35839;SDS011;35514;50.504;30.500;2023-02-28T14:21:26;14.07;;;6.00;;
35839;SDS011;35514;50.504;30.500;2023-02-28T14:26:49;14.85;;;5.53;;
35839;SDS011;35514;50.504;30.500;2023-02-28T14:29:28;14.07;;;5.53;;
35839;SDS011;35514;50.504;30.500;2023-02-28T14:31:58;9.38;;;4.60;;
35839;SDS011;35514;50.504;30.500;2023-02-28T14:34:31;14.52;;;5.60;;
35839;SDS011;35514;50.504;30.500;2023-02-28T14:37:02;11.10;;;5.20;;
35839;SDS011;35514;50.504;30.500;2023-02-28T14:39:31;12.27;;;5.65;;
35839;SDS011;35514;50.504;30.500;2023-02-28T14:42:00;11.43;;;5.22;;
35839;SDS011;35514;50.504;30.500;2023-02-28T14:44:31;11.30;;;5.40;;
35839;SDS011;35514;50.504;30.500;2023-02-28T14:46:59;12.85;;;5.30;;
35839;SDS011;35514;50.504;30.500;2023-02-28T14:49:31;15.25;;;6.43;;
35839;SDS011;35514;50.504;30.500;2023-02-28T14:52:03;14.93;;;5.97;;
35839;SDS011;35514;50.504;30.500;2023-02-28T14:54:32;13.65;;;5.13;;
35839;SDS011;35514;50.504;30.500;2023-02-28T14:57:02;13.23;;;5.57;;
35839;SDS011;35514;50.504;30.500;2023-02-28T14:59:31;15.35;;;5.55;;
35839;SDS011;35514;50.504;30.500;2023-02-28T15:02:15;11.75;;;5.25;;
35839;SDS011;35514;50.504;30.500;2023-02-28T15:04:43;14.77;;;5.70;;
35839;SDS011;35514;50.504;30.500;2023-02-28T15:07:14;16.10;;;5.88;;
35839;SDS011;35514;50.504;30.500;2023-02-28T15:09:41;12.63;;;5.82;;
35839;SDS011;35514;50.504;30.500;2023-02-28T15:12:14;13.10;;;5.60;;
35839;SDS011;35514;50.504;30.500;2023-02-28T15:14:42;13.43;;;5.85;;
35839;SDS011;35514;50.504;30.500;2023-02-28T15:17:14;14.35;;;5.45;;
35839;SDS011;35514;50.504;30.500;2023-02-28T15:19:47;17.58;;;5.95;;
35839;SDS011;35514;50.504;30.500;2023-02-28T15:22:16;15.20;;;5.95;;
35839;SDS011;35514;50.504;30.500;2023-02-28T15:24:45;12.35;;;5.47;;